Time;durP1;ratioP1;P1;durP2;ratioP2;P2;SDS_P1;SDS_P2;PMS_P1;PMS_P2;Temp;Humidity;BMP_temperature;BMP_pressure;BME280_temperature;BME280_humidity;BME280_pressure;Samples;Min_cycle;Max_cycle;Signal;HPM_P1;HPM_P2
2024/02/01 00:01:29;;;;;;;188.15;177.55;;;11.90;99.90;;;;;;5029979;28;20045;-76
2024/02/01 00:03:55;;;;;;;165.63;155.75;;;11.90;99.90;;;;;;5031239;28;20045;-76
2024/02/01 00:06:21;;;;;;;176.93;166.73;;;11.90;99.90;;;;;;5031375;28;20038;-76
2024/02/01 00:08:47;;;;;;;168.75;159.10;;;11.90;99.90;;;;;;5031578;28;20046;-76
2024/02/01 00:11:13;;;;;;;163.20;153.77;;;11.90;99.90;;;;;;5030814;28;20041;-76
2024/02/01 00:13:39;;;;;;;161.77;152.50;;;11.90;99.90;;;;;;5030941;28;20049;-76
2024/02/01 00:16:05;;;;;;;168.73;158.93;;;11.90;99.90;;;;;;5030546;28;20041;-76
2024/02/01 00:18:31;;;;;;;161.07;151.80;;;11.80;99.90;;;;;;5029999;28;20057;-76
2024/02/01 00:20:58;;;;;;;168.20;158.70;;;11.90;99.90;;;;;;5029105;28;20056;-76
2024/02/01 00:23:24;;;;;;;160.68;151.27;;;11.90;99.90;;;;;;5031371;28;20030;-76
2024/02/01 00:25:50;;;;;;;164.43;155.02;;;12.00;99.90;;;;;;5031126;28;20041;-76
2024/02/01 00:28:16;;;;;;;161.57;152.02;;;11.90;99.90;;;;;;5030303;28;20478;-76
2024/02/01 00:30:42;;;;;;;154.90;145.98;;;11.90;99.90;;;;;;5029984;28;20037;-76
2024/02/01 00:33:08;;;;;;;159.48;149.90;;;11.90;99.90;;;;;;5031276;28;20041;-76
2024/02/01 00:35:34;;;;;;;175.25;164.95;;;12.00;99.90;;;;;;5031154;28;20029;-76
2024/02/01 00:38:00;;;;;;;176.43;166.05;;;12.00;99.90;;;;;;5029691;28;20041;-75
2024/02/01 00:40:26;;;;;;;172.15;161.98;;;12.00;99.90;;;;;;5032239;28;20080;-74
2024/02/01 00:42:52;;;;;;;190.93;179.40;;;12.00;99.90;;;;;;5034785;28;20379;-75
2024/02/01 00:45:18;;;;;;;190.38;179.18;;;12.00;99.90;;;;;;5033974;28;20030;-76
2024/02/01 00:47:47;;;;;;;191.07;179.75;;;12.00;99.90;;;;;;5035237;28;20363;-75
2024/02/01 00:50:14;;;;;;;188.48;177.27;;;12.10;99.90;;;;;;5032406;28;20060;-76
2024/02/01 00:52:40;;;;;;;190.65;179.77;;;12.10;99.90;;;;;;5034674;28;20042;-76
2024/02/01 00:55:06;;;;;;;210.00;197.60;;;12.00;99.90;;;;;;5034730;28;20033;-76
2024/02/01 00:57:32;;;;;;;254.10;238.77;;;12.00;99.90;;;;;;5034930;28;20045;-76
2024/02/01 00:59:58;;;;;;;247.90;233.30;;;12.00;99.90;;;;;;5034588;28;20033;-76
2024/02/01 01:02:25;;;;;;;252.95;238.05;;;12.00;99.90;;;;;;5034008;28;20070;-76
2024/02/01 01:04:51;;;;;;;248.55;234.07;;;12.00;99.90;;;;;;5034328;28;20034;-76
2024/02/01 01:07:17;;;;;;;283.30;266.88;;;12.00;99.90;;;;;;5033775;28;20044;-76
2024/02/01 01:09:43;;;;;;;264.90;248.63;;;12.00;99.90;;;;;;5035026;28;20238;-76
2024/02/01 01:12:09;;;;;;;268.35;252.02;;;12.00;99.90;;;;;;5033749;28;20025;-76
2024/02/01 01:14:36;;;;;;;262.05;246.27;;;11.90;99.90;;;;;;5034251;28;20463;-75
2024/02/01 01:17:02;;;;;;;241.10;226.65;;;12.00;99.90;;;;;;5033826;28;20033;-76
2024/02/01 01:19:28;;;;;;;246.82;231.95;;;12.00;99.90;;;;;;5034479;28;20041;-76
2024/02/01 01:21:56;;;;;;;259.13;243.93;;;12.00;99.90;;;;;;5033608;28;20033;-76
2024/02/01 01:24:22;;;;;;;243.50;228.10;;;11.90;99.90;;;;;;5017025;28;20049;-76
2024/02/01 01:26:48;;;;;;;241.00;226.65;;;11.90;99.90;;;;;;5033782;28;20030;-76
2024/02/01 01:29:14;;;;;;;265.20;249.38;;;11.90;99.90;;;;;;5033759;28;20060;-75
2024/02/01 01:31:42;;;;;;;253.98;238.48;;;11.90;99.90;;;;;;5044587;28;20037;-76
2024/02/01 01:34:08;;;;;;;256.98;241.73;;;11.90;99.90;;;;;;5054254;28;20045;-76
2024/02/01 01:36:34;;;;;;;231.02;217.13;;;11.80;99.90;;;;;;5039326;28;20040;-75
2024/02/01 01:39:01;;;;;;;240.18;225.80;;;11.80;99.90;;;;;;5034227;28;20466;-75
2024/02/01 01:41:27;;;;;;;260.15;244.48;;;11.80;99.90;;;;;;5032506;28;20072;-76
2024/02/01 01:43:54;;;;;;;270.70;253.95;;;11.90;99.90;;;;;;5033666;28;20037;-76
2024/02/01 01:46:20;;;;;;;274.35;257.50;;;11.80;99.90;;;;;;5033097;28;20045;-76
2024/02/01 01:48:46;;;;;;;266.02;249.45;;;11.90;99.90;;;;;;5033805;28;20150;-75
2024/02/01 01:51:12;;;;;;;262.48;246.65;;;11.90;99.90;;;;;;5031901;28;20048;-75
2024/02/01 01:53:38;;;;;;;265.48;249.32;;;11.90;99.90;;;;;;5015908;28;20025;-76
2024/02/01 01:56:04;;;;;;;253.45;238.13;;;11.90;99.90;;;;;;5031669;28;20045;-75
2024/02/01 01:58:30;;;;;;;249.10;233.80;;;11.90;99.90;;;;;;5033516;28;20033;-76
2024/02/01 02:00:56;;;;;;;254.80;238.88;;;11.80;99.90;;;;;;5031409;28;20037;-75
2024/02/01 02:03:27;;;;;;;719.53;455.95;;;11.80;99.90;;;;;;5033130;28;20030;-75
2024/02/01 02:05:54;;;;;;;280.23;262.92;;;11.70;99.90;;;;;;5031547;28;20402;-75
2024/02/01 02:08:21;;;;;;;311.08;291.13;;;11.70;99.90;;;;;;5031330;28;20044;-76
2024/02/01 02:10:48;;;;;;;265.10;248.98;;;11.70;99.90;;;;;;5032706;28;20041;-76
2024/02/01 02:13:14;;;;;;;297.02;278.13;;;11.70;99.90;;;;;;5031173;28;20398;-76
2024/02/01 02:15:40;;;;;;;717.58;453.95;;;11.60;99.90;;;;;;5032809;28;20033;-76
2024/02/01 02:18:09;;;;;;;311.52;291.33;;;11.70;99.90;;;;;;5033403;28;20497;-75
2024/02/01 02:20:46;;;;;;;279.17;262.17;;;11.60;99.90;;;;;;5032704;28;20474;-75
2024/02/01 02:23:12;;;;;;;287.52;269.70;;;11.70;99.90;;;;;;5015666;28;20041;-75
2024/02/01 02:25:39;;;;;;;752.10;485.95;;;11.60;99.90;;;;;;5031173;28;20030;-75
2024/02/01 02:28:05;;;;;;;751.70;485.83;;;11.60;99.90;;;;;;5032835;28;20041;-76
2024/02/01 02:30:31;;;;;;;715.42;452.27;;;11.60;99.90;;;;;;5031777;28;20046;-75
2024/02/01 02:32:57;;;;;;;1999.90;999.90;;;11.60;99.90;;;;;;5032810;28;20390;-76
2024/02/01 02:35:23;;;;;;;1999.90;999.90;;;11.70;99.90;;;;;;5032784;28;20125;-76
2024/02/01 02:37:50;;;;;;;705.40;442.98;;;11.60;99.90;;;;;;5032387;28;20021;-75
2024/02/01 02:40:20;;;;;;;284.73;267.60;;;11.60;99.90;;;;;;5031932;28;20050;-76
2024/02/01 02:42:46;;;;;;;278.75;261.92;;;11.70;99.90;;;;;;5031564;28;20038;-75
2024/02/01 02:45:13;;;;;;;1163.32;652.97;;;11.60;99.90;;;;;;5031775;28;20025;-76
2024/02/01 02:47:39;;;;;;;296.58;278.83;;;11.60;99.90;;;;;;5032584;28;20040;-76
2024/02/01 02:50:08;;;;;;;263.92;248.35;;;11.60;99.90;;;;;;5032116;28;20029;-76
2024/02/01 02:52:38;;;;;;;252.55;237.25;;;11.70;99.90;;;;;;5032248;28;20042;-76
2024/02/01 02:55:08;;;;;;;255.35;240.00;;;11.70;99.90;;;;;;5032486;28;20022;-76
2024/02/01 02:57:34;;;;;;;246.98;231.65;;;11.80;99.90;;;;;;5032464;28;20041;-76
2024/02/01 03:00:02;;;;;;;221.73;208.00;;;11.80;99.90;;;;;;5031783;28;20040;-75
2024/02/01 03:02:29;;;;;;;237.40;222.68;;;11.70;99.90;;;;;;5001470;28;20034;-75
2024/02/01 03:04:55;;;;;;;242.75;227.50;;;11.70;99.90;;;;;;5006346;28;20028;-76
2024/02/01 03:07:22;;;;;;;239.93;225.05;;;11.80;99.90;;;;;;5010536;28;20022;-75
2024/02/01 03:09:48;;;;;;;234.25;219.38;;;11.70;99.90;;;;;;5010697;28;20049;-75
2024/02/01 03:12:14;;;;;;;292.67;274.02;;;11.80;99.90;;;;;;5009749;28;20045;-76
2024/02/01 03:14:40;;;;;;;246.57;231.07;;;11.80;99.90;;;;;;5011126;28;20471;-76
2024/02/01 03:17:08;;;;;;;251.95;236.02;;;11.80;99.90;;;;;;5010346;28;20052;-76
2024/02/01 03:19:40;;;;;;;274.52;257.25;;;11.80;99.90;;;;;;5011327;28;20514;-75
2024/02/01 03:22:06;;;;;;;235.82;220.50;;;11.90;99.90;;;;;;5011045;28;20466;-76
2024/02/01 03:24:32;;;;;;;228.32;214.20;;;11.90;99.90;;;;;;5010927;28;20037;-76
2024/02/01 03:26:58;;;;;;;197.05;184.45;;;11.80;99.90;;;;;;5009510;28;20033;-76
2024/02/01 03:29:26;;;;;;;172.05;161.00;;;11.90;99.90;;;;;;5009641;28;20060;-75
2024/02/01 03:31:52;;;;;;;162.25;152.20;;;11.90;99.90;;;;;;5019794;28;20040;-76
2024/02/01 03:34:21;;;;;;;161.20;150.85;;;11.80;99.90;;;;;;5030829;28;20060;-76
2024/02/01 03:36:50;;;;;;;156.82;146.88;;;11.80;99.90;;;;;;5030934;28;20033;-75
2024/02/01 03:39:22;;;;;;;179.52;168.10;;;11.80;99.90;;;;;;5031181;28;20049;-75
2024/02/01 03:41:57;;;;;;;160.55;150.38;;;11.70;99.90;;;;;;5031734;28;20486;-75
2024/02/01 03:44:24;;;;;;;159.27;149.27;;;11.70;99.90;;;;;;5032065;28;20383;-75
2024/02/01 03:46:54;;;;;;;154.55;144.98;;;11.70;99.90;;;;;;5031132;28;20046;-76
2024/02/01 03:49:20;;;;;;;166.95;156.60;;;11.60;99.90;;;;;;5031762;28;20041;-75
2024/02/01 03:51:46;;;;;;;157.30;147.40;;;11.60;99.90;;;;;;5030821;28;20089;-76
2024/02/01 03:54:13;;;;;;;145.38;135.90;;;11.60;99.90;;;;;;5031518;28;20474;-75
2024/02/01 03:56:40;;;;;;;134.02;125.20;;;11.60;99.90;;;;;;5013688;28;20467;-76
2024/02/01 03:59:08;;;;;;;145.20;136.20;;;11.50;99.90;;;;;;5031522;28;20042;-76
2024/02/01 04:01:35;;;;;;;154.52;144.77;;;11.50;99.90;;;;;;5031022;28;20045;-75
2024/02/01 04:04:02;;;;;;;140.73;131.48;;;11.50;99.90;;;;;;5031801;28;20038;-75
2024/02/01 04:06:28;;;;;;;132.73;124.63;;;11.50;99.90;;;;;;5030255;28;20040;-76
2024/02/01 04:08:55;;;;;;;135.20;126.82;;;11.60;99.90;;;;;;5030795;28;20494;-75
2024/02/01 04:11:21;;;;;;;143.95;135.05;;;11.50;99.90;;;;;;5030280;28;20044;-76
2024/02/01 04:13:47;;;;;;;140.43;131.43;;;11.50;99.90;;;;;;5031661;28;20038;-75
2024/02/01 04:16:14;;;;;;;137.88;129.20;;;11.50;99.90;;;;;;5035047;28;20041;-75
2024/02/01 04:18:40;;;;;;;145.70;136.52;;;11.50;99.90;;;;;;5033589;28;20029;-76
2024/02/01 04:21:10;;;;;;;131.88;123.65;;;11.50;99.90;;;;;;5035361;28;20048;-76
2024/02/01 04:23:38;;;;;;;144.35;135.13;;;11.40;99.90;;;;;;5034996;28;20390;-76
2024/02/01 04:26:05;;;;;;;146.98;138.18;;;11.50;99.90;;;;;;5035138;28;20040;-76
2024/02/01 04:28:33;;;;;;;152.65;142.77;;;11.50;99.90;;;;;;5034423;28;20459;-76
2024/02/01 04:31:01;;;;;;;147.57;137.93;;;11.50;99.90;;;;;;5034197;28;20057;-75
2024/02/01 04:33:30;;;;;;;129.82;121.70;;;11.40;99.90;;;;;;5035194;28;20410;-76
2024/02/01 04:35:56;;;;;;;122.13;114.40;;;11.50;99.90;;;;;;5035085;28;20033;-76
2024/02/01 04:38:25;;;;;;;123.97;116.07;;;11.40;99.90;;;;;;5035151;28;20033;-75
2024/02/01 04:40:52;;;;;;;124.25;116.75;;;11.50;99.90;;;;;;5034244;28;20060;-75
2024/02/01 04:43:19;;;;;;;165.40;155.32;;;11.50;99.90;;;;;;5035485;28;20040;-76
2024/02/01 04:45:45;;;;;;;143.35;134.45;;;11.50;99.90;;;;;;5034287;28;20064;-75
2024/02/01 04:48:12;;;;;;;163.48;153.63;;;11.50;99.90;;;;;;5035247;28;20093;-76
2024/02/01 04:50:38;;;;;;;154.60;145.32;;;11.50;99.90;;;;;;5034060;28;20044;-76
2024/02/01 04:53:05;;;;;;;191.35;180.43;;;11.50;99.90;;;;;;5034757;28;20631;-76
2024/02/01 04:55:31;;;;;;;185.15;174.45;;;11.50;99.90;;;;;;5034515;28;20033;-75
2024/02/01 04:57:58;;;;;;;199.52;188.02;;;11.50;99.90;;;;;;5034920;28;20026;-75
2024/02/01 05:00:26;;;;;;;209.93;197.68;;;11.60;99.90;;;;;;5032325;28;20034;-75
2024/02/01 05:02:54;;;;;;;191.23;179.85;;;11.60;99.90;;;;;;5034689;28;20497;-75
2024/02/01 05:05:20;;;;;;;168.15;158.27;;;11.60;99.90;;;;;;5034034;28;20048;-75
2024/02/01 05:07:46;;;;;;;148.65;140.15;;;11.60;99.90;;;;;;5034515;28;20045;-76
2024/02/01 05:10:12;;;;;;;139.68;131.52;;;11.60;99.90;;;;;;5025703;28;20057;-76
2024/02/01 05:12:39;;;;;;;138.73;130.35;;;11.60;99.90;;;;;;5031251;28;20038;-75
2024/02/01 05:15:09;;;;;;;162.70;153.45;;;11.70;99.90;;;;;;5032976;28;20049;-75
2024/02/01 05:17:36;;;;;;;180.93;170.38;;;11.70;99.90;;;;;;5034267;28;20022;-75
2024/02/01 05:20:08;;;;;;;175.63;165.48;;;11.70;99.90;;;;;;5034404;28;20057;-75
2024/02/01 05:22:35;;;;;;;182.70;171.85;;;11.70;99.90;;;;;;5033634;28;20058;-75
2024/02/01 05:25:25;;;;;;;202.75;191.55;;;11.60;99.90;;;;;;5033608;28;20041;-75
2024/02/01 05:27:52;;;;;;;179.23;168.73;;;11.60;99.90;;;;;;5032323;28;20037;-75
2024/02/01 05:30:22;;;;;;;183.82;172.27;;;11.80;99.90;;;;;;5031128;28;20505;-75
2024/02/01 05:32:52;;;;;;;215.40;203.25;;;11.80;99.90;;;;;;5034267;28;20467;-75
2024/02/01 05:35:30;;;;;;;227.65;214.30;;;11.90;99.90;;;;;;5033492;28;20033;-75
2024/02/01 05:37:59;;;;;;;204.75;193.02;;;11.90;99.90;;;;;;5033405;28;20037;-75
2024/02/01 05:40:25;;;;;;;233.80;219.43;;;11.90;99.90;;;;;;5033167;28;20057;-76
2024/02/01 05:42:51;;;;;;;196.35;185.13;;;11.80;99.90;;;;;;5033262;28;20034;-75
2024/02/01 05:45:18;;;;;;;203.43;191.50;;;11.80;99.90;;;;;;5032671;28;20029;-75
2024/02/01 05:47:45;;;;;;;241.52;227.23;;;11.80;99.90;;;;;;5032039;28;20049;-76
2024/02/01 05:50:14;;;;;;;266.10;249.88;;;11.80;99.90;;;;;;5030709;28;20502;-76
2024/02/01 05:52:41;;;;;;;260.77;245.48;;;11.90;99.90;;;;;;5033736;28;20056;-75
2024/02/01 05:55:09;;;;;;;263.38;248.05;;;11.90;99.90;;;;;;5014303;28;20038;-76
2024/02/01 05:57:35;;;;;;;276.70;259.90;;;11.90;99.90;;;;;;5014769;28;20038;-76
2024/02/01 06:00:06;;;;;;;303.35;284.35;;;11.80;99.90;;;;;;5022247;28;20026;-75
2024/02/01 06:02:33;;;;;;;268.05;251.38;;;11.80;99.90;;;;;;5032586;28;20402;-75
2024/02/01 06:04:59;;;;;;;286.92;269.33;;;11.80;99.90;;;;;;5033297;28;20029;-75
2024/02/01 06:07:25;;;;;;;175.40;165.68;;;11.70;99.90;;;;;;5031700;28;20048;-75
2024/02/01 06:09:51;;;;;;;293.60;275.27;;;11.80;99.90;;;;;;5033189;28;20403;-76
2024/02/01 06:12:17;;;;;;;293.88;275.17;;;11.70;99.90;;;;;;5033287;28;20029;-76
2024/02/01 06:14:43;;;;;;;250.88;235.50;;;11.70;99.90;;;;;;5033770;28;20057;-75
2024/02/01 06:17:09;;;;;;;258.10;242.30;;;11.80;99.90;;;;;;5033000;28;20033;-76
2024/02/01 06:19:35;;;;;;;226.73;213.48;;;11.70;99.90;;;;;;5034115;28;20036;-75
2024/02/01 06:22:05;;;;;;;261.25;245.73;;;11.70;99.90;;;;;;5032242;28;20028;-76
2024/02/01 06:24:33;;;;;;;278.92;261.65;;;11.70;99.90;;;;;;5032998;28;20069;-75
2024/02/01 06:26:59;;;;;;;297.50;279.95;;;11.70;99.90;;;;;;5031040;28;20044;-75
2024/02/01 06:29:25;;;;;;;258.10;242.02;;;11.80;99.90;;;;;;5032962;28;20045;-76
2024/02/01 06:31:51;;;;;;;208.85;196.40;;;11.70;99.90;;;;;;5033164;28;20038;-75
2024/02/01 06:34:24;;;;;;;207.80;195.13;;;11.70;99.90;;;;;;5031862;28;20373;-76
2024/02/01 06:36:58;;;;;;;232.20;218.25;;;11.70;99.90;;;;;;5032884;28;20470;-75
2024/02/01 06:42:04;;;;;;;260.17;244.43;;;11.70;99.90;;;;;;5036853;28;20517;-75
2024/02/01 06:44:31;;;;;;;260.60;244.60;;;11.60;99.90;;;;;;5032851;28;20025;-75
2024/02/01 06:52:57;;;;;;;289.35;271.20;;;11.60;99.90;;;;;;5031850;28;20693;-75
2024/02/01 07:01:01;;;;;;;211.90;198.55;;;11.60;99.90;;;;;;4941534;28;20069;-75
2024/02/01 07:06:33;;;;;;;194.95;183.00;;;11.70;99.90;;;;;;4910728;29;20660;-75
2024/02/01 07:09:16;;;;;;;237.68;222.50;;;11.80;99.90;;;;;;4914061;29;20040;-75
2024/02/01 07:11:59;;;;;;;216.10;202.82;;;11.80;99.90;;;;;;4914398;29;20048;-75
2024/02/01 07:14:36;;;;;;;197.48;185.10;;;11.80;99.90;;;;;;4914355;29;20044;-75
2024/02/01 07:19:53;;;;;;;228.07;214.32;;;11.80;99.90;;;;;;4913475;29;20036;-75
2024/02/01 07:25:33;;;;;;;262.77;245.95;;;11.80;99.90;;;;;;4895221;29;20039;-75
2024/02/01 07:58:19;;;;;;;238.20;223.85;;;11.80;99.90;;;;;;4992341;28;20034;-73
2024/02/01 08:00:51;;;;;;;145.38;136.02;;;11.80;99.90;;;;;;4973227;28;20030;-73
2024/02/01 08:08:38;;;;;;;362.10;339.58;;;12.00;99.90;;;;;;4976781;28;20039;-74
2024/02/01 08:11:05;;;;;;;304.25;286.00;;;12.20;99.90;;;;;;4977673;28;20504;-74
2024/02/01 08:13:31;;;;;;;188.55;176.85;;;12.30;99.90;;;;;;4970428;28;20070;-74
2024/02/01 08:15:57;;;;;;;174.38;163.90;;;12.40;99.90;;;;;;4988504;28;20072;-77
2024/02/01 08:18:26;;;;;;;151.15;141.90;;;12.60;99.90;;;;;;4974155;28;20034;-75
2024/02/01 08:20:52;;;;;;;142.63;134.32;;;12.70;99.90;;;;;;4973991;28;20038;-75
2024/02/01 08:23:19;;;;;;;131.20;122.93;;;12.70;99.90;;;;;;5020711;28;20041;-73
2024/02/01 08:25:48;;;;;;;251.43;237.90;;;12.70;99.90;;;;;;5030929;28;20037;-75
2024/02/01 08:28:15;;;;;;;162.98;153.63;;;12.70;99.90;;;;;;5031525;28;20497;-74
2024/02/01 08:30:45;;;;;;;251.32;237.32;;;12.70;99.90;;;;;;5023884;28;20041;-73
2024/02/01 08:33:20;;;;;;;206.90;194.57;;;12.60;99.90;;;;;;5029128;28;20037;-74
2024/02/01 08:35:47;;;;;;;129.75;121.15;;;12.60;99.90;;;;;;5021351;28;20124;-75
2024/02/01 08:38:13;;;;;;;132.55;124.55;;;12.60;99.90;;;;;;5029414;28;20049;-74
2024/02/01 08:40:42;;;;;;;107.07;100.15;;;12.70;99.90;;;;;;5055977;28;20518;-74
2024/02/01 08:43:12;;;;;;;148.00;138.80;;;12.70;99.90;;;;;;5020288;28;20032;-76
2024/02/01 08:45:40;;;;;;;155.60;146.45;;;12.70;99.90;;;;;;5019837;28;20101;-75
2024/02/01 08:48:08;;;;;;;141.48;133.05;;;12.70;99.90;;;;;;5031406;28;20378;-74
2024/02/01 08:50:46;;;;;;;118.38;111.07;;;12.70;99.90;;;;;;5029339;28;20034;-74
2024/02/01 08:53:13;;;;;;;118.78;111.20;;;12.70;99.90;;;;;;5029289;28;20052;-74
2024/02/01 08:55:39;;;;;;;131.18;123.43;;;12.80;99.90;;;;;;5045168;28;20045;-75
2024/02/01 08:58:09;;;;;;;170.60;160.75;;;12.70;99.90;;;;;;5025299;28;20044;-75
2024/02/01 09:00:36;;;;;;;138.20;129.73;;;12.80;99.90;;;;;;5028333;28;20049;-74
2024/02/01 09:03:03;;;;;;;197.75;186.65;;;12.80;99.90;;;;;;5034434;28;20386;-75
2024/02/01 09:05:35;;;;;;;142.70;133.85;;;12.80;99.90;;;;;;5033455;28;20033;-75
2024/02/01 09:08:02;;;;;;;169.75;159.52;;;12.80;99.90;;;;;;5029550;28;20028;-75
2024/02/01 09:10:29;;;;;;;219.35;206.63;;;12.80;99.90;;;;;;5031138;28;20038;-74
2024/02/01 09:12:55;;;;;;;254.95;239.63;;;12.80;99.90;;;;;;5033880;28;20033;-75
2024/02/01 09:15:21;;;;;;;215.48;203.07;;;12.80;99.90;;;;;;5032666;28;20037;-75
2024/02/01 09:17:48;;;;;;;175.20;165.18;;;12.90;99.90;;;;;;5033925;28;20025;-75
2024/02/01 09:20:25;;;;;;;507.08;474.88;;;12.90;99.90;;;;;;5034132;28;20366;-75
2024/02/01 09:22:52;;;;;;;297.33;278.83;;;12.90;99.90;;;;;;5033097;28;20030;-74
2024/02/01 09:25:21;;;;;;;369.25;347.65;;;12.80;99.90;;;;;;5016572;28;20474;-74
2024/02/01 09:27:52;;;;;;;216.43;203.38;;;12.80;99.90;;;;;;5033310;28;20026;-74
2024/02/01 09:30:19;;;;;;;429.15;403.17;;;12.70;99.90;;;;;;5036511;28;20470;-74
2024/02/01 09:32:53;;;;;;;510.90;479.30;;;12.70;99.90;;;;;;5032871;28;20045;-74
2024/02/01 09:35:20;;;;;;;398.17;374.10;;;12.80;99.90;;;;;;5030866;28;20404;-72
2024/02/01 09:37:53;;;;;;;396.27;372.63;;;12.70;99.90;;;;;;5033338;28;20045;-72
2024/02/01 09:40:20;;;;;;;356.20;334.73;;;12.80;99.90;;;;;;5034317;28;20045;-72
2024/02/01 09:43:17;;;;;;;344.92;324.92;;;12.80;99.90;;;;;;5033811;28;20041;-72
2024/02/01 09:45:44;;;;;;;367.17;344.88;;;12.80;99.90;;;;;;5017908;28;20037;-72
2024/02/01 09:48:16;;;;;;;250.57;235.75;;;12.90;99.90;;;;;;5034269;28;20042;-72
2024/02/01 09:50:56;;;;;;;376.52;353.50;;;12.80;99.90;;;;;;5031563;28;20052;-72
2024/02/01 09:53:23;;;;;;;247.27;232.43;;;12.90;99.90;;;;;;5029303;28;20029;-71
2024/02/01 09:55:50;;;;;;;367.42;345.13;;;12.90;99.90;;;;;;5033419;28;20040;-71
2024/02/01 09:58:17;;;;;;;311.83;293.80;;;12.90;99.90;;;;;;5034209;28;20029;-71
2024/02/01 10:00:44;;;;;;;347.20;326.98;;;12.90;99.90;;;;;;5028490;28;20032;-71
2024/02/01 10:03:14;;;;;;;413.10;387.50;;;12.90;99.90;;;;;;5033475;28;20048;-71
2024/02/01 10:05:41;;;;;;;316.83;298.63;;;12.90;99.90;;;;;;5032493;28;20022;-71
2024/02/01 10:08:14;;;;;;;237.98;224.20;;;12.90;99.90;;;;;;5025768;28;20037;-70
2024/02/01 10:10:41;;;;;;;233.82;220.20;;;12.90;99.90;;;;;;5017256;28;20033;-70
2024/02/01 10:13:14;;;;;;;351.05;329.83;;;12.90;99.90;;;;;;5032273;28;20053;-70
2024/02/01 10:15:43;;;;;;;288.98;271.63;;;12.90;99.90;;;;;;5033021;28;20042;-72
2024/02/01 10:18:20;;;;;;;248.82;234.43;;;12.90;99.90;;;;;;5033501;28;20040;-71
2024/02/01 10:20:50;;;;;;;303.17;285.33;;;13.00;99.90;;;;;;5025819;28;20045;-72
2024/02/01 10:23:16;;;;;;;378.33;355.75;;;13.00;99.90;;;;;;5032738;28;20064;-72
2024/02/01 10:25:47;;;;;;;312.15;293.88;;;13.00;99.90;;;;;;5032905;28;20501;-72
2024/02/01 10:28:18;;;;;;;385.75;363.05;;;13.10;99.90;;;;;;5029618;28;20029;-71
2024/02/01 10:30:45;;;;;;;294.50;277.27;;;13.10;99.90;;;;;;5030321;28;20040;-71
2024/02/01 10:33:12;;;;;;;328.88;310.13;;;13.10;99.90;;;;;;5029913;28;20398;-71
2024/02/01 10:35:39;;;;;;;321.05;302.02;;;13.10;99.90;;;;;;5031128;28;20032;-71
2024/02/01 10:38:12;;;;;;;322.95;303.25;;;13.10;99.90;;;;;;5031741;28;20036;-72
2024/02/01 10:41:11;;;;;;;353.83;333.10;;;13.10;99.90;;;;;;5031827;28;20033;-71
2024/02/01 10:43:42;;;;;;;482.88;452.63;;;13.10;99.90;;;;;;5028354;28;20049;-71
2024/02/01 10:46:09;;;;;;;255.90;241.18;;;13.30;99.90;;;;;;5028994;28;20505;-72
2024/02/01 10:48:57;;;;;;;290.33;273.90;;;13.30;99.90;;;;;;5032009;28;20486;-71
2024/02/01 10:51:24;;;;;;;221.73;209.35;;;13.30;99.90;;;;;;5026492;28;20060;-71
2024/02/01 10:53:50;;;;;;;237.05;223.15;;;13.30;99.90;;;;;;5028799;28;20041;-73
2024/02/01 10:56:17;;;;;;;271.08;254.95;;;13.20;99.90;;;;;;5029805;28;20044;-79
2024/02/01 10:58:45;;;;;;;138.30;130.45;;;13.50;99.90;;;;;;5031696;28;20371;-74
2024/02/01 11:01:12;;;;;;;175.43;165.32;;;13.40;99.90;;;;;;5029711;28;20038;-73
2024/02/01 11:03:51;;;;;;;205.68;193.43;;;13.30;99.90;;;;;;5031575;28;20037;-73
2024/02/01 11:06:18;;;;;;;400.67;376.27;;;13.20;99.90;;;;;;5031595;28;20030;-73
2024/02/01 11:08:45;;;;;;;364.38;342.98;;;13.10;99.90;;;;;;5031763;28;20041;-73
2024/02/01 11:11:16;;;;;;;199.35;188.23;;;13.00;99.90;;;;;;5032361;28;20049;-72
2024/02/01 11:14:09;;;;;;;312.60;294.77;;;13.10;99.90;;;;;;5032791;28;20030;-73
2024/02/01 11:16:58;;;;;;;370.20;348.38;;;13.20;99.90;;;;;;5029336;28;20048;-74
2024/02/01 11:19:29;;;;;;;330.35;311.15;;;13.10;99.90;;;;;;5032290;28;20033;-73
2024/02/01 11:21:56;;;;;;;194.50;183.32;;;13.10;99.90;;;;;;5031781;28;20482;-72
2024/02/01 11:24:26;;;;;;;252.20;238.18;;;13.20;99.90;;;;;;5031365;28;20034;-73
2024/02/01 11:26:57;;;;;;;353.98;333.63;;;13.20;99.90;;;;;;5030415;28;20043;-73
2024/02/01 11:29:25;;;;;;;250.00;235.88;;;13.10;99.90;;;;;;5011558;28;20041;-73
2024/02/01 11:31:55;;;;;;;209.65;197.77;;;13.10;99.90;;;;;;5057483;28;20078;-74
2024/02/01 11:34:24;;;;;;;220.50;207.60;;;13.20;99.90;;;;;;5026626;28;20056;-73
2024/02/01 11:36:50;;;;;;;219.65;207.15;;;13.30;99.90;;;;;;5024839;28;20398;-73
2024/02/01 11:39:17;;;;;;;220.30;207.43;;;13.30;99.90;;;;;;5031496;28;20054;-72
2024/02/01 11:41:46;;;;;;;258.85;244.15;;;13.20;99.90;;;;;;5030269;28;20045;-73
2024/02/01 11:44:16;;;;;;;234.48;220.73;;;13.30;99.90;;;;;;5031260;28;20061;-73
2024/02/01 11:46:48;;;;;;;252.35;237.75;;;13.30;99.90;;;;;;5029058;28;20482;-75
2024/02/01 11:49:19;;;;;;;275.65;260.45;;;13.30;99.90;;;;;;5028880;28;20056;-73
2024/02/01 11:52:15;;;;;;;242.32;228.38;;;13.30;99.90;;;;;;5023599;28;20068;-73
2024/02/01 11:54:51;;;;;;;254.88;240.25;;;13.50;99.90;;;;;;5029994;28;20356;-72
2024/02/01 11:57:21;;;;;;;261.90;247.43;;;13.40;99.90;;;;;;5027432;28;20040;-73
2024/02/01 11:59:48;;;;;;;161.68;152.15;;;13.50;99.90;;;;;;5030391;28;20053;-73
2024/02/01 12:02:17;;;;;;;247.00;233.10;;;13.50;99.90;;;;;;5028315;28;20040;-73
2024/02/01 12:04:46;;;;;;;291.42;275.35;;;13.50;99.90;;;;;;5062758;28;20025;-73
2024/02/01 12:07:17;;;;;;;233.35;220.77;;;13.40;99.90;;;;;;5056078;28;20096;-73
2024/02/01 12:09:47;;;;;;;211.48;199.90;;;13.40;99.90;;;;;;5029285;28;20048;-73
2024/02/01 12:12:23;;;;;;;240.80;227.30;;;13.50;99.90;;;;;;5024548;28;20382;-75
2024/02/01 12:14:50;;;;;;;225.82;212.98;;;13.50;99.90;;;;;;5023445;28;20021;-73
2024/02/01 12:17:16;;;;;;;216.45;204.38;;;13.60;99.90;;;;;;5029229;28;20037;-72
2024/02/01 12:19:45;;;;;;;298.90;282.15;;;13.70;99.90;;;;;;5031554;28;20040;-72
2024/02/01 12:22:12;;;;;;;373.73;352.48;;;13.70;99.90;;;;;;5029341;28;20066;-73
2024/02/01 12:24:39;;;;;;;344.23;324.83;;;13.80;99.90;;;;;;5019010;28;20029;-75
2024/02/01 12:27:06;;;;;;;211.52;199.80;;;13.80;99.90;;;;;;5025919;28;20045;-72
2024/02/01 12:29:32;;;;;;;237.02;224.13;;;13.80;99.90;;;;;;5030407;28;20045;-73
2024/02/01 12:31:59;;;;;;;191.23;180.85;;;13.80;99.90;;;;;;5017590;28;20046;-72
2024/02/01 12:34:28;;;;;;;202.70;191.50;;;13.80;99.90;;;;;;5029217;28;20380;-72
2024/02/01 12:36:54;;;;;;;694.38;647.35;;;13.80;99.90;;;;;;5034885;28;20026;-73
2024/02/01 12:39:23;;;;;;;683.20;637.15;;;13.80;99.90;;;;;;5035149;28;20033;-72
2024/02/01 12:41:49;;;;;;;632.10;590.33;;;13.80;99.90;;;;;;5033962;28;20060;-72
2024/02/01 12:44:16;;;;;;;619.28;579.03;;;13.80;99.90;;;;;;5034041;28;20037;-73
2024/02/01 12:46:45;;;;;;;693.00;645.25;;;13.90;99.90;;;;;;5033041;28;20029;-73
2024/02/01 12:49:17;;;;;;;488.63;458.67;;;14.00;99.90;;;;;;5065888;28;20049;-73
2024/02/01 12:51:43;;;;;;;345.38;326.20;;;14.00;99.90;;;;;;5032444;28;20061;-73
2024/02/01 12:54:09;;;;;;;521.50;489.15;;;13.90;99.90;;;;;;5033444;28;20029;-72
2024/02/01 12:56:38;;;;;;;466.55;438.60;;;13.80;99.90;;;;;;5033389;28;20046;-72
2024/02/01 12:59:04;;;;;;;418.70;394.25;;;13.90;99.90;;;;;;5017219;28;20394;-73
2024/02/01 13:01:32;;;;;;;471.40;443.70;;;13.90;99.90;;;;;;5030429;28;20033;-73
2024/02/01 13:04:00;;;;;;;500.02;469.92;;;13.90;99.90;;;;;;5032579;28;20049;-72
2024/02/01 13:06:26;;;;;;;462.77;435.65;;;13.80;99.90;;;;;;5030837;28;20045;-73
2024/02/01 13:08:52;;;;;;;502.73;472.30;;;13.80;99.90;;;;;;5032923;28;20130;-73
2024/02/01 13:11:30;;;;;;;272.52;256.83;;;13.70;99.90;;;;;;5064521;28;20025;-73
2024/02/01 13:14:00;;;;;;;181.80;172.05;;;13.70;99.90;;;;;;5033346;28;20048;-72